createdAt,value
2018-04-07T00:00:04.250Z,24.27
2018-04-07T00:02:31.818Z,25.23
2018-04-07T00:04:59.385Z,28.30
2018-04-07T00:07:27.060Z,27.50
2018-04-07T00:09:54.687Z,25.20
2018-04-07T00:12:22.254Z,27.27
2018-04-07T00:14:49.906Z,30.50
2018-04-07T00:17:17.467Z,28.03
2018-04-07T00:19:45.041Z,25.03
2018-04-07T00:22:12.602Z,29.57
2018-04-07T00:24:40.403Z,30.17
2018-04-07T00:27:08.006Z,26.50
2018-04-07T00:29:35.834Z,30.33
2018-04-07T00:32:03.655Z,28.03
2018-04-07T00:34:31.561Z,27.60
2018-04-07T00:36:59.137Z,26.57
2018-04-07T00:39:26.713Z,27.33
2018-04-07T00:41:54.310Z,26.63
2018-04-07T00:44:21.881Z,29.20
2018-04-07T00:46:49.446Z,27.20
2018-04-07T00:49:17.137Z,27.97
2018-04-07T00:51:44.898Z,26.90
2018-04-07T00:54:12.463Z,26.50
2018-04-07T00:56:40.025Z,28.50
2018-04-07T00:59:07.744Z,29.83
2018-04-07T01:01:35.571Z,25.23
2018-04-07T01:04:03.148Z,28.97
2018-04-07T01:06:30.879Z,25.50
2018-04-07T01:08:58.451Z,26.90
2018-04-07T01:11:26.014Z,26.77
2018-04-07T01:13:53.728Z,27.63
2018-04-07T01:16:21.297Z,27.50
2018-04-07T01:18:48.861Z,29.77
2018-04-07T01:21:16.426Z,28.77
2018-04-07T01:23:44.232Z,30.57
2018-04-07T01:26:11.830Z,29.50
2018-04-07T01:28:39.528Z,33.57
2018-04-07T01:31:07.085Z,29.37
2018-04-07T01:33:34.904Z,32.97
2018-04-07T01:36:02.513Z,30.17
2018-04-07T01:38:31.243Z,32.93
2018-04-07T01:40:59.062Z,35.37
2018-04-07T01:43:26.617Z,32.27
2018-04-07T01:45:54.197Z,34.93
2018-04-07T01:48:22.016Z,31.23
2018-04-07T01:50:49.622Z,33.70
2018-04-07T01:53:17.216Z,32.90
2018-04-07T01:55:44.934Z,32.13
2018-04-07T01:58:12.679Z,33.13
2018-04-07T02:00:40.245Z,31.50
2018-04-07T02:03:07.940Z,30.33
2018-04-07T02:05:35.552Z,32.93
2018-04-07T02:08:03.361Z,36.40
2018-04-07T02:10:30.951Z,31.53
2018-04-07T02:12:58.522Z,32.37
2018-04-07T02:15:26.095Z,30.40
2018-04-07T02:17:53.666Z,31.67
2018-04-07T02:20:21.235Z,32.97
2018-04-07T02:22:48.802Z,36.03
2018-04-07T02:25:16.366Z,30.07
2018-04-07T02:27:43.925Z,32.17
2018-04-07T02:30:11.722Z,31.93
2018-04-07T02:32:39.301Z,34.37
2018-04-07T02:35:06.876Z,36.37
2018-04-07T02:37:34.677Z,35.87
2018-04-07T02:40:02.256Z,33.17
2018-04-07T02:42:29.834Z,33.73
2018-04-07T02:44:57.631Z,34.27
2018-04-07T02:47:25.202Z,34.13
2018-04-07T02:49:52.766Z,34.27
2018-04-07T02:52:20.347Z,34.43
2018-04-07T02:54:48.104Z,35.87
2018-04-07T02:57:15.666Z,32.30
2018-04-07T02:59:43.415Z,35.67
2018-04-07T03:02:11.045Z,39.80
2018-04-07T03:04:38.609Z,35.97
2018-04-07T03:07:06.364Z,36.20
2018-04-07T03:09:33.926Z,35.17
2018-04-07T03:12:01.523Z,36.57
2018-04-07T03:14:29.126Z,38.73
2018-04-07T03:16:56.863Z,37.40
2018-04-07T03:19:24.604Z,31.43
2018-04-07T03:21:52.169Z,37.97
2018-04-07T03:24:19.746Z,38.63
2018-04-07T03:26:47.537Z,35.17
2018-04-07T03:29:15.117Z,39.20
2018-04-07T03:31:42.695Z,39.53
2018-04-07T03:34:10.258Z,41.73
2018-04-07T03:36:37.989Z,37.97
2018-04-07T03:39:06.230Z,37.30
2018-04-07T03:41:34.048Z,38.83
2018-04-07T03:44:01.621Z,39.40
2018-04-07T03:46:29.382Z,37.93
2018-04-07T03:48:56.981Z,40.50
2018-04-07T03:51:24.566Z,41.67
2018-04-07T03:53:52.227Z,40.13
2018-04-07T03:56:20.055Z,34.63
2018-04-07T03:58:47.873Z,39.73
2018-04-07T04:01:15.469Z,41.73
2018-04-07T04:03:43.075Z,42.20
2018-04-07T04:06:10.811Z,39.77
2018-04-07T04:08:38.381Z,37.87
2018-04-07T04:11:06.166Z,39.00
2018-04-07T04:13:33.982Z,41.67
2018-04-07T04:16:01.546Z,38.57
2018-04-07T04:18:29.114Z,42.37
2018-04-07T04:20:56.686Z,41.37
2018-04-07T04:23:24.254Z,37.40
2018-04-07T04:25:51.856Z,39.00
2018-04-07T04:28:19.427Z,41.00
2018-04-07T04:30:47.208Z,39.57
2018-04-07T04:33:15.028Z,38.33
2018-04-07T04:35:42.574Z,37.07
2018-04-07T04:38:10.148Z,42.57
2018-04-07T04:40:37.725Z,37.50
2018-04-07T04:43:05.353Z,38.70
2018-04-07T04:45:33.116Z,46.10
2018-04-07T04:48:00.744Z,37.33
2018-04-07T04:50:28.318Z,43.47
2018-04-07T04:52:55.888Z,38.97
2018-04-07T04:55:23.469Z,38.67
2018-04-07T04:57:51.044Z,39.40
2018-04-07T05:00:19.288Z,41.13
2018-04-07T05:02:47.043Z,40.50
2018-04-07T05:05:14.610Z,40.50
2018-04-07T05:07:42.379Z,46.43
2018-04-07T05:10:10.097Z,44.23
2018-04-07T05:12:37.680Z,39.93
2018-04-07T05:15:05.281Z,47.13
2018-04-07T05:17:32.890Z,44.37
2018-04-07T05:20:00.669Z,46.60
2018-04-07T05:22:28.229Z,39.83
2018-04-07T05:24:55.810Z,39.30
2018-04-07T05:27:23.382Z,37.97
2018-04-07T05:29:51.032Z,39.40
2018-04-07T05:32:18.858Z,35.93
2018-04-07T05:34:46.565Z,39.97
2018-04-07T05:37:14.134Z,40.30
2018-04-07T05:39:41.694Z,42.30
2018-04-07T05:42:09.299Z,38.47
2018-04-07T05:44:36.890Z,33.60
2018-04-07T05:47:04.463Z,33.17
2018-04-07T05:49:32.026Z,30.80
2018-04-07T05:51:59.642Z,36.40
2018-04-07T05:54:27.420Z,38.47
2018-04-07T05:56:55.034Z,32.57
2018-04-07T05:59:22.646Z,36.30
2018-04-07T06:01:50.360Z,30.07
2018-04-07T06:04:17.925Z,32.63
2018-04-07T06:06:45.496Z,35.03
2018-04-07T06:09:13.333Z,35.50
2018-04-07T06:11:41.147Z,35.33
2018-04-07T06:14:08.717Z,29.97
2018-04-07T06:16:36.286Z,30.00
2018-04-07T06:19:04.107Z,27.13
2018-04-07T06:21:31.919Z,25.17
2018-04-07T06:23:59.519Z,28.87
2018-04-07T06:26:27.247Z,24.60
2018-04-07T06:28:54.942Z,24.90
2018-04-07T06:31:22.506Z,26.73
2018-04-07T06:33:50.087Z,24.63
2018-04-07T06:36:17.660Z,23.80
2018-04-07T06:38:45.238Z,20.30
2018-04-07T06:41:13.063Z,26.07
2018-04-07T06:43:40.882Z,22.67
2018-04-07T06:46:08.801Z,20.57
2018-04-07T06:48:36.347Z,23.87
2018-04-07T06:51:04.105Z,20.03
2018-04-07T06:53:31.831Z,20.27
2018-04-07T06:55:59.673Z,20.27
2018-04-07T06:58:27.237Z,19.07
2018-04-07T07:00:54.862Z,18.97
2018-04-07T07:03:22.442Z,22.50
2018-04-07T07:05:50.246Z,16.47
2018-04-07T07:08:17.819Z,16.07
2018-04-07T07:10:45.373Z,22.70
2018-04-07T07:13:13.200Z,16.93
2018-04-07T07:15:40.766Z,16.53
2018-04-07T07:18:08.400Z,16.73
2018-04-07T07:20:36.115Z,13.47
2018-04-07T07:23:03.667Z,16.50
2018-04-07T07:25:31.268Z,14.47
2018-04-07T07:27:58.830Z,19.23
2018-04-07T07:30:26.401Z,13.90
2018-04-07T07:32:53.967Z,17.87
2018-04-07T07:35:21.762Z,23.93
2018-04-07T07:37:49.495Z,17.37
2018-04-07T07:40:17.091Z,13.43
2018-04-07T07:42:44.916Z,17.20
2018-04-07T07:45:12.480Z,13.70
2018-04-07T07:47:40.064Z,14.73
2018-04-07T07:50:07.870Z,17.00
2018-04-07T07:52:35.466Z,13.43
2018-04-07T07:55:03.206Z,13.10
2018-04-07T07:57:30.766Z,15.30
2018-04-07T07:59:58.363Z,13.40
2018-04-07T08:02:25.938Z,16.03
2018-04-07T08:04:53.779Z,13.37
2018-04-07T08:07:21.457Z,14.67
2018-04-07T08:09:49.315Z,14.40
2018-04-07T08:12:16.882Z,12.60
2018-04-07T08:14:44.461Z,12.83
2018-04-07T08:17:12.269Z,11.17
2018-04-07T08:19:39.874Z,12.80
2018-04-07T08:22:07.705Z,15.87
2018-04-07T08:24:35.281Z,13.43
2018-04-07T08:27:02.899Z,18.40
2018-04-07T08:29:30.661Z,13.63
2018-04-07T08:31:58.222Z,14.53
2018-04-07T08:34:25.826Z,13.50
2018-04-07T08:36:53.414Z,13.63
2018-04-07T08:39:21.028Z,16.20
2018-04-07T08:41:48.586Z,10.57
2018-04-07T08:44:16.203Z,11.07
2018-04-07T08:46:43.974Z,14.17
2018-04-07T08:49:11.540Z,12.63
2018-04-07T08:51:39.124Z,11.10
2018-04-07T08:54:06.696Z,12.40
2018-04-07T08:56:34.279Z,17.43
2018-04-07T08:59:02.082Z,12.13
2018-04-07T09:01:29.702Z,15.33
2018-04-07T09:03:57.262Z,11.83
2018-04-07T09:06:24.834Z,11.23
2018-04-07T09:08:52.426Z,12.93
2018-04-07T09:11:20.141Z,12.30
2018-04-07T09:13:47.714Z,13.47
2018-04-07T09:16:15.502Z,13.63
2018-04-07T09:18:43.110Z,14.30
2018-04-07T09:21:10.677Z,12.17
2018-04-07T09:23:38.238Z,12.13
2018-04-07T09:26:05.822Z,13.37
2018-04-07T09:28:33.379Z,12.00
2018-04-07T09:31:06.500Z,11.43
2018-04-07T09:33:34.062Z,11.73
2018-04-07T09:36:01.864Z,25.57
2018-04-07T09:38:29.441Z,11.60
2018-04-07T09:40:57.199Z,10.40
2018-04-07T09:43:25.018Z,12.07
2018-04-07T09:45:52.627Z,13.50
2018-04-07T09:48:20.357Z,11.37
2018-04-07T09:50:47.926Z,12.90
2018-04-07T09:53:15.577Z,10.53
2018-04-07T09:55:43.410Z,9.10
2018-04-07T09:58:10.970Z,11.03
2018-04-07T10:00:38.744Z,8.80
2018-04-07T10:03:06.365Z,11.50
2018-04-07T10:05:33.933Z,8.50
2018-04-07T10:08:01.501Z,9.00
2018-04-07T10:10:29.055Z,9.87
2018-04-07T10:12:56.619Z,10.80
2018-04-07T10:15:24.182Z,7.83
2018-04-07T10:17:51.745Z,10.57
2018-04-07T10:20:19.461Z,10.57
2018-04-07T10:22:47.046Z,12.37
2018-04-07T10:25:14.602Z,7.13
2018-04-07T10:27:42.175Z,6.77
2018-04-07T10:30:09.962Z,9.90
2018-04-07T10:32:37.528Z,6.70
2018-04-07T10:35:05.262Z,6.57
2018-04-07T10:37:32.906Z,8.07
2018-04-07T10:40:00.595Z,7.73
2018-04-07T10:42:28.153Z,8.30
2018-04-07T10:44:55.967Z,9.57
2018-04-07T10:47:23.686Z,11.67
2018-04-07T10:49:51.258Z,10.90
2018-04-07T10:52:18.817Z,12.10
2018-04-07T10:54:46.521Z,9.03
2018-04-07T10:57:14.089Z,7.90
2018-04-07T10:59:41.763Z,8.50
2018-04-07T11:02:09.334Z,12.13
2018-04-07T11:04:37.003Z,8.50
2018-04-07T11:07:04.583Z,10.27
2018-04-07T11:09:32.349Z,12.33
2018-04-07T11:11:59.905Z,11.67
2018-04-07T11:14:27.683Z,8.37
2018-04-07T11:16:55.262Z,11.33
2018-04-07T11:19:22.930Z,6.93
2018-04-07T11:21:50.497Z,8.30
2018-04-07T11:24:18.170Z,10.30
2018-04-07T11:26:45.726Z,8.30
2018-04-07T11:29:13.492Z,8.20
2018-04-07T11:31:41.215Z,19.40
2018-04-07T11:34:08.980Z,11.23
2018-04-07T11:36:36.638Z,9.03
2018-04-07T11:39:04.257Z,10.37
2018-04-07T11:41:31.831Z,11.90
2018-04-07T11:43:59.397Z,10.23
2018-04-07T11:46:26.971Z,15.60
2018-04-07T11:48:54.540Z,11.07
2018-04-07T11:51:22.101Z,10.57
2018-04-07T11:53:49.670Z,11.37
2018-04-07T11:56:17.234Z,11.43
2018-04-07T11:58:44.797Z,17.60
2018-04-07T12:01:12.532Z,13.50
2018-04-07T12:03:40.343Z,11.87
2018-04-07T12:06:07.953Z,14.03
2018-04-07T12:08:35.519Z,15.53
2018-04-07T12:11:03.265Z,14.30
2018-04-07T12:13:30.826Z,13.33
2018-04-07T12:15:58.634Z,12.23
2018-04-07T12:18:26.452Z,13.13
2018-04-07T12:20:54.170Z,16.47
2018-04-07T12:23:21.989Z,15.47
2018-04-07T12:25:49.807Z,14.70
2018-04-07T12:28:17.413Z,14.07
2018-04-07T12:30:44.978Z,14.17
2018-04-07T12:33:12.537Z,14.03
2018-04-07T12:35:40.115Z,12.70
2018-04-07T12:38:07.897Z,14.07
2018-04-07T12:40:35.468Z,16.63
2018-04-07T12:43:03.050Z,18.47
2018-04-07T12:45:30.698Z,18.97
2018-04-07T12:47:58.289Z,15.17
2018-04-07T12:50:25.872Z,13.70
2018-04-07T12:52:53.440Z,15.80
2018-04-07T12:55:21.642Z,15.90
2018-04-07T12:57:49.210Z,15.67
2018-04-07T13:00:16.794Z,16.27
2018-04-07T13:02:44.406Z,16.13
2018-04-07T13:05:12.200Z,14.07
2018-04-07T13:07:39.979Z,15.47
2018-04-07T13:10:07.732Z,14.67
2018-04-07T13:12:35.552Z,14.60
2018-04-07T13:15:03.370Z,20.43
2018-04-07T13:17:30.990Z,20.80
2018-04-07T13:19:58.807Z,16.57
2018-04-07T13:22:26.410Z,13.80
2018-04-07T13:24:54.012Z,14.60
2018-04-07T13:27:21.774Z,18.37
2018-04-07T13:29:49.348Z,12.70
2018-04-07T13:32:16.988Z,17.03
2018-04-07T13:34:44.554Z,16.03
2018-04-07T13:37:12.351Z,14.77
2018-04-07T13:39:39.929Z,16.27
2018-04-07T13:42:07.491Z,19.77
2018-04-07T13:44:35.074Z,22.37
2018-04-07T13:47:02.649Z,24.97
2018-04-07T13:49:30.332Z,18.67
2018-04-07T13:51:58.141Z,22.27
2018-04-07T13:54:25.712Z,21.67
2018-04-07T13:56:53.368Z,19.90
2018-04-07T13:59:20.950Z,18.17
2018-04-07T14:01:48.697Z,21.03
2018-04-07T14:04:16.438Z,17.73
2018-04-07T14:06:44.005Z,18.93
2018-04-07T14:09:11.747Z,19.63
2018-04-07T14:11:39.317Z,21.73
2018-04-07T14:14:07.080Z,19.20
2018-04-07T14:16:34.700Z,18.60
2018-04-07T14:19:02.258Z,19.83
2018-04-07T14:21:29.834Z,17.93
2018-04-07T14:23:57.398Z,17.93
2018-04-07T14:26:24.966Z,19.37
2018-04-07T14:28:52.534Z,20.80
2018-04-07T14:31:20.098Z,18.60
2018-04-07T14:33:47.847Z,20.17
2018-04-07T14:36:15.665Z,16.87
2018-04-07T14:38:43.483Z,19.67
2018-04-07T14:41:11.042Z,18.57
2018-04-07T14:43:38.600Z,21.87
2018-04-07T14:46:06.178Z,21.87
2018-04-07T14:48:33.739Z,17.70
2018-04-07T14:51:01.286Z,17.53
2018-04-07T14:53:29.091Z,18.70
2018-04-07T14:55:56.654Z,19.17
2018-04-07T14:58:24.321Z,17.27
2018-04-07T15:00:52.147Z,16.57
2018-04-07T15:03:19.726Z,15.23
2018-04-07T15:05:47.458Z,14.90
2018-04-07T15:08:15.200Z,16.27
2018-04-07T15:10:42.829Z,15.77
2018-04-07T15:13:10.637Z,15.47
2018-04-07T15:15:38.462Z,15.10
2018-04-07T15:18:06.273Z,17.17
2018-04-07T15:20:33.887Z,15.87
2018-04-07T15:23:01.474Z,15.17
2018-04-07T15:25:29.230Z,14.97
2018-04-07T15:27:56.846Z,16.73
2018-04-07T15:30:24.423Z,16.33
2018-04-07T15:32:51.994Z,16.33
2018-04-07T15:35:19.800Z,13.90
2018-04-07T15:37:47.362Z,15.00
2018-04-07T15:40:15.030Z,18.77
2018-04-07T15:42:42.594Z,17.60
2018-04-07T15:45:10.166Z,15.00
2018-04-07T15:47:37.770Z,15.10
2018-04-07T15:50:05.337Z,14.57
2018-04-07T15:52:33.128Z,14.63
2018-04-07T15:55:00.950Z,14.27
2018-04-07T15:57:28.614Z,12.53
2018-04-07T15:59:56.195Z,14.33
2018-04-07T16:02:23.767Z,16.37
2018-04-07T16:04:51.359Z,15.07
2018-04-07T16:07:19.075Z,52.03
2018-04-07T16:09:46.682Z,30.63
2018-04-07T16:12:14.286Z,17.03
2018-04-07T16:14:41.845Z,44.03
2018-04-07T16:17:09.457Z,16.77
2018-04-07T16:19:37.018Z,12.77
2018-04-07T16:22:04.842Z,14.03
2018-04-07T16:24:32.660Z,19.53
2018-04-07T16:27:00.222Z,21.13
2018-04-07T16:29:27.799Z,17.73
2018-04-07T16:31:55.614Z,51.30
2018-04-07T16:34:23.242Z,102.53
2018-04-07T16:36:51.053Z,68.80
2018-04-07T16:39:18.872Z,49.00
2018-04-07T16:41:46.494Z,18.00
2018-04-07T16:44:14.070Z,23.00
2018-04-07T16:46:41.715Z,15.33
2018-04-07T16:49:09.293Z,11.97
2018-04-07T16:51:36.950Z,15.43
2018-04-07T16:54:04.552Z,13.57
2018-04-07T16:56:32.295Z,19.10
2018-04-07T16:58:59.908Z,16.20
2018-04-07T17:01:27.733Z,18.87
2018-04-07T17:03:55.553Z,14.37
2018-04-07T17:06:23.122Z,18.43
2018-04-07T17:08:50.742Z,19.33
2018-04-07T17:11:18.301Z,18.30
2018-04-07T17:13:46.024Z,13.77
2018-04-07T17:16:13.610Z,19.53
2018-04-07T17:18:41.172Z,14.20
2018-04-07T17:21:08.763Z,16.70
2018-04-07T17:23:36.372Z,16.20
2018-04-07T17:26:03.994Z,17.50
2018-04-07T17:28:31.553Z,16.77
2018-04-07T17:30:59.348Z,16.03
2018-04-07T17:33:26.919Z,15.70
2018-04-07T17:35:54.602Z,17.37
2018-04-07T17:38:22.401Z,17.33
2018-04-07T17:40:49.971Z,17.20
2018-04-07T17:43:17.645Z,15.97
2018-04-07T17:45:45.357Z,17.60
2018-04-07T17:48:13.176Z,20.20
2018-04-07T17:50:40.750Z,20.33
2018-04-07T17:53:08.403Z,24.37
2018-04-07T17:55:36.230Z,26.03
2018-04-07T17:58:04.048Z,22.30
2018-04-07T18:00:31.866Z,23.97
2018-04-07T18:02:59.426Z,21.07
2018-04-07T18:05:26.970Z,23.57
2018-04-07T18:07:54.722Z,27.67
2018-04-07T18:10:22.271Z,22.03
2018-04-07T18:12:49.939Z,33.70
2018-04-07T18:15:17.645Z,40.37
2018-04-07T18:17:45.265Z,17.40
2018-04-07T18:20:12.830Z,19.87
2018-04-07T18:22:40.629Z,22.17
2018-04-07T18:25:08.451Z,26.03
2018-04-07T18:27:36.022Z,28.23
2018-04-07T18:30:03.670Z,24.77
2018-04-07T18:32:31.237Z,29.97
2018-04-07T18:34:59.020Z,32.50
2018-04-07T18:37:26.589Z,31.57
2018-04-07T18:39:54.335Z,27.93
2018-04-07T18:42:22.053Z,26.73
2018-04-07T18:44:49.626Z,29.47
2018-04-07T18:47:17.410Z,28.97
2018-04-07T18:49:44.986Z,28.57
2018-04-07T18:52:12.611Z,38.33
2018-04-07T18:54:40.382Z,36.30
2018-04-07T18:57:08.093Z,26.90
2018-04-07T18:59:35.665Z,27.10
2018-04-07T19:02:03.255Z,32.40
2018-04-07T19:04:30.877Z,32.17
2018-04-07T19:06:58.487Z,30.27
2018-04-07T19:09:26.163Z,34.80
2018-04-07T19:11:53.761Z,26.50
2018-04-07T19:14:21.358Z,29.17
2018-04-07T19:16:49.730Z,33.43
2018-04-07T19:19:17.298Z,32.60
2018-04-07T19:21:44.952Z,28.67
2018-04-07T19:24:12.519Z,27.70
2018-04-07T19:26:40.301Z,26.83
2018-04-07T19:29:08.020Z,27.80
2018-04-07T19:31:35.629Z,28.20
2018-04-07T19:34:03.456Z,43.50
2018-04-07T19:36:31.274Z,40.13
2018-04-07T19:38:59.093Z,41.13
2018-04-07T19:41:26.932Z,35.27
2018-04-07T19:43:54.543Z,32.93
2018-04-07T19:46:22.111Z,30.47
2018-04-07T19:48:49.767Z,43.97
2018-04-07T19:51:17.587Z,30.53
2018-04-07T19:53:45.174Z,30.53
2018-04-07T19:56:12.754Z,29.77
2018-04-07T19:58:40.318Z,43.10
2018-04-07T20:01:07.930Z,34.50
2018-04-07T20:03:35.497Z,32.83
2018-04-07T20:06:03.294Z,28.30
2018-04-07T20:08:31.111Z,25.30
2018-04-07T20:10:58.674Z,31.63
2018-04-07T20:13:26.446Z,24.73
2018-04-07T20:15:54.006Z,26.93
2018-04-07T20:18:21.622Z,32.80
2018-04-07T20:20:49.437Z,37.43
2018-04-07T20:23:17.010Z,54.27
2018-04-07T20:25:44.838Z,90.63
2018-04-07T20:28:12.402Z,57.93
2018-04-07T20:30:40.174Z,44.00
2018-04-07T20:33:07.993Z,39.90
2018-04-07T20:35:35.614Z,34.37
2018-04-07T20:38:03.221Z,37.70
2018-04-07T20:40:30.927Z,35.93
2018-04-07T20:42:58.765Z,43.43
2018-04-07T20:45:26.342Z,45.97
2018-04-07T20:47:53.925Z,47.20
2018-04-07T20:50:21.489Z,36.33
2018-04-07T20:52:49.065Z,50.40
2018-04-07T20:55:16.648Z,43.27
2018-04-07T20:57:44.372Z,40.27
2018-04-07T21:00:11.985Z,37.47
2018-04-07T21:02:39.675Z,31.80
2018-04-07T21:05:07.244Z,29.10
2018-04-07T21:07:34.809Z,26.70
2018-04-07T21:10:02.375Z,26.63
2018-04-07T21:12:30.064Z,27.17
2018-04-07T21:14:57.799Z,20.87
2018-04-07T21:17:25.361Z,17.80
2018-04-07T21:19:52.947Z,20.97
2018-04-07T21:22:20.758Z,23.37
2018-04-07T21:24:48.346Z,22.70
2018-04-07T21:27:16.066Z,17.47
2018-04-07T21:29:43.674Z,19.80
2018-04-07T21:32:11.265Z,14.93
2018-04-07T21:34:39.042Z,21.87
2018-04-07T21:37:06.618Z,22.63
2018-04-07T21:39:34.203Z,26.00
2018-04-07T21:42:01.777Z,21.33
2018-04-07T21:44:29.338Z,24.90
2018-04-07T21:46:57.098Z,22.93
2018-04-07T21:49:24.840Z,20.00
2018-04-07T21:51:52.571Z,22.73
2018-04-07T21:54:20.390Z,26.17
2018-04-07T21:56:48.109Z,23.03
2018-04-07T21:59:15.735Z,25.87
2018-04-07T22:01:43.314Z,20.60
2018-04-07T22:04:11.160Z,21.80
2018-04-07T22:06:38.740Z,17.13
2018-04-07T22:09:06.597Z,22.67
2018-04-07T22:11:34.210Z,37.50
2018-04-07T22:14:01.907Z,38.10
2018-04-07T22:16:29.525Z,34.53
2018-04-07T22:18:57.269Z,35.10
2018-04-07T22:21:24.890Z,29.13
2018-04-07T22:23:52.706Z,28.67
2018-04-07T22:26:20.299Z,28.23
2018-04-07T22:28:48.438Z,85.27
2018-04-07T22:31:16.030Z,36.30
2018-04-07T22:33:43.662Z,22.73
2018-04-07T22:36:11.500Z,19.93
2018-04-07T22:38:39.155Z,19.03
2018-04-07T22:41:06.719Z,22.53
2018-04-07T22:43:34.289Z,18.10
2018-04-07T22:46:01.877Z,33.60
2018-04-07T22:48:29.687Z,57.03
2018-04-07T22:50:57.506Z,36.73
2018-04-07T22:53:25.324Z,41.27
2018-04-07T22:55:52.943Z,44.97
2018-04-07T22:58:20.514Z,40.27
2018-04-07T23:00:48.280Z,35.83
2018-04-07T23:03:15.831Z,33.50
2018-04-07T23:05:43.615Z,31.27
2018-04-07T23:08:11.186Z,34.07
2018-04-07T23:10:38.757Z,31.27
2018-04-07T23:13:06.460Z,36.83
2018-04-07T23:15:34.288Z,35.03
2018-04-07T23:18:01.864Z,34.37
2018-04-07T23:20:29.453Z,32.37
2018-04-07T23:22:57.013Z,30.80
2018-04-07T23:25:24.582Z,33.33
2018-04-07T23:27:52.377Z,45.03
2018-04-07T23:30:20.196Z,45.93
2018-04-07T23:32:48.113Z,59.87
2018-04-07T23:35:15.853Z,43.83
2018-04-07T23:37:43.544Z,43.47
2018-04-07T23:40:11.269Z,70.60
2018-04-07T23:42:38.843Z,55.93
2018-04-07T23:45:06.406Z,49.80
2018-04-07T23:47:34.038Z,40.83
2018-04-07T23:50:01.833Z,26.77
2018-04-07T23:52:29.561Z,25.67
2018-04-07T23:54:57.380Z,30.60
2018-04-07T23:57:24.938Z,30.80
2018-04-07T23:59:52.506Z,25.80
